sensor_id;sensor_type;location;lat;lon;timestamp;pressure;altitude;pressure_sealevel;temperature;humidity
48041;BME280;33815;48.386;11.738;2022-09-16T00:00:43;95967.84;;;8.79;100.00
48041;BME280;33815;48.386;11.738;2022-09-16T00:03:10;95960.53;;;8.74;100.00
48041;BME280;33815;48.386;11.738;2022-09-16T00:05:40;95957.88;;;8.66;100.00
48041;BME280;33815;48.386;11.738;2022-09-16T00:08:06;95958.31;;;8.61;100.00
48041;BME280;33815;48.386;11.738;2022-09-16T00:10:32;95961.75;;;8.62;100.00
48041;BME280;33815;48.386;11.738;2022-09-16T00:12:57;95951.97;;;8.55;100.00
48041;BME280;33815;48.386;11.738;2022-09-16T00:15:22;95948.28;;;8.66;100.00
48041;BME280;33815;48.386;11.738;2022-09-16T00:17:47;95949.16;;;8.75;100.00
48041;BME280;33815;48.386;11.738;2022-09-16T00:20:13;95960.75;;;8.89;100.00
48041;BME280;33815;48.386;11.738;2022-09-16T00:22:38;95937.31;;;8.81;100.00
48041;BME280;33815;48.386;11.738;2022-09-16T00:25:04;95939.63;;;8.84;100.00
48041;BME280;33815;48.386;11.738;2022-09-16T00:27:29;95953.50;;;9.01;100.00
48041;BME280;33815;48.386;11.738;2022-09-16T00:29:54;95948.47;;;9.07;100.00
48041;BME280;33815;48.386;11.738;2022-09-16T00:32:20;95943.28;;;9.07;100.00
48041;BME280;33815;48.386;11.738;2022-09-16T00:34:45;95944.00;;;9.18;100.00
48041;BME280;33815;48.386;11.738;2022-09-16T00:37:10;95935.34;;;9.17;100.00
48041;BME280;33815;48.386;11.738;2022-09-16T00:39:36;95933.28;;;9.21;100.00
48041;BME280;33815;48.386;11.738;2022-09-16T00:42:03;95955.59;;;9.32;100.00
48041;BME280;33815;48.386;11.738;2022-09-16T00:44:51;95944.06;;;9.34;100.00
48041;BME280;33815;48.386;11.738;2022-09-16T00:47:22;95942.56;;;9.32;100.00
48041;BME280;33815;48.386;11.738;2022-09-16T00:49:48;95952.00;;;9.41;100.00
48041;BME280;33815;48.386;11.738;2022-09-16T00:52:15;95944.56;;;9.46;100.00
48041;BME280;33815;48.386;11.738;2022-09-16T00:54:41;95949.13;;;9.52;100.00
48041;BME280;33815;48.386;11.738;2022-09-16T00:57:09;95940.84;;;9.49;100.00
48041;BME280;33815;48.386;11.738;2022-09-16T00:59:40;95952.88;;;9.58;100.00
48041;BME280;33815;48.386;11.738;2022-09-16T01:02:12;95946.19;;;9.47;100.00
48041;BME280;33815;48.386;11.738;2022-09-16T01:04:44;95934.97;;;9.47;100.00
48041;BME280;33815;48.386;11.738;2022-09-16T01:07:11;95936.13;;;9.44;100.00
48041;BME280;33815;48.386;11.738;2022-09-16T01:09:38;95932.84;;;9.42;100.00
48041;BME280;33815;48.386;11.738;2022-09-16T01:12:04;95942.78;;;9.55;100.00
48041;BME280;33815;48.386;11.738;2022-09-16T01:14:29;95923.41;;;9.41;100.00
48041;BME280;33815;48.386;11.738;2022-09-16T01:17:20;95929.59;;;9.48;100.00
48041;BME280;33815;48.386;11.738;2022-09-16T01:31:12;95929.94;;;9.53;100.00
48041;BME280;33815;48.386;11.738;2022-09-16T01:36:41;95920.03;;;9.49;100.00
48041;BME280;33815;48.386;11.738;2022-09-16T01:39:21;95918.38;;;9.48;100.00
48041;BME280;33815;48.386;11.738;2022-09-16T01:42:30;95935.97;;;9.62;100.00
48041;BME280;33815;48.386;11.738;2022-09-16T01:45:21;95916.59;;;9.56;100.00
48041;BME280;33815;48.386;11.738;2022-09-16T01:50:36;95924.09;;;9.68;100.00
48041;BME280;33815;48.386;11.738;2022-09-16T01:53:26;95937.78;;;9.78;100.00
48041;BME280;33815;48.386;11.738;2022-09-16T01:55:58;95923.66;;;9.81;100.00
48041;BME280;33815;48.386;11.738;2022-09-16T01:58:35;95906.22;;;9.73;100.00
48041;BME280;33815;48.386;11.738;2022-09-16T02:01:07;95922.34;;;9.76;100.00
48041;BME280;33815;48.386;11.738;2022-09-16T02:03:37;95893.53;;;9.53;100.00
48041;BME280;33815;48.386;11.738;2022-09-16T02:06:07;95926.88;;;9.74;100.00
48041;BME280;33815;48.386;11.738;2022-09-16T02:08:40;95933.72;;;9.75;100.00
48041;BME280;33815;48.386;11.738;2022-09-16T02:11:09;95925.91;;;9.75;100.00
48041;BME280;33815;48.386;11.738;2022-09-16T02:13:46;95911.25;;;9.66;100.00
48041;BME280;33815;48.386;11.738;2022-09-16T02:16:17;95908.34;;;9.69;100.00
48041;BME280;33815;48.386;11.738;2022-09-16T02:18:49;95913.88;;;9.74;100.00
48041;BME280;33815;48.386;11.738;2022-09-16T02:21:17;95920.06;;;9.82;100.00
48041;BME280;33815;48.386;11.738;2022-09-16T02:23:46;95931.47;;;9.89;100.00
48041;BME280;33815;48.386;11.738;2022-09-16T02:26:15;95909.16;;;9.78;100.00
48041;BME280;33815;48.386;11.738;2022-09-16T02:28:43;95935.06;;;9.96;100.00
48041;BME280;33815;48.386;11.738;2022-09-16T02:31:11;95927.25;;;9.96;100.00
48041;BME280;33815;48.386;11.738;2022-09-16T02:33:46;95929.00;;;9.95;100.00
48041;BME280;33815;48.386;11.738;2022-09-16T02:36:15;95917.97;;;9.93;100.00
48041;BME280;33815;48.386;11.738;2022-09-16T02:38:47;95927.72;;;10.00;100.00
48041;BME280;33815;48.386;11.738;2022-09-16T02:41:14;95923.34;;;10.00;100.00
48041;BME280;33815;48.386;11.738;2022-09-16T02:43:40;95910.31;;;9.92;100.00
48041;BME280;33815;48.386;11.738;2022-09-16T02:46:32;95926.25;;;10.05;100.00
48041;BME280;33815;48.386;11.738;2022-09-16T02:51:57;95914.06;;;10.06;100.00
48041;BME280;33815;48.386;11.738;2022-09-16T02:54:34;95914.69;;;10.08;100.00
48041;BME280;33815;48.386;11.738;2022-09-16T02:57:01;95920.41;;;10.11;100.00
48041;BME280;33815;48.386;11.738;2022-09-16T02:59:27;95919.25;;;10.14;100.00
48041;BME280;33815;48.386;11.738;2022-09-16T03:01:53;95899.25;;;9.98;100.00
48041;BME280;33815;48.386;11.738;2022-09-16T03:04:19;95920.88;;;10.15;100.00
48041;BME280;33815;48.386;11.738;2022-09-16T03:06:46;95897.44;;;10.07;100.00
48041;BME280;33815;48.386;11.738;2022-09-16T03:09:13;95917.47;;;10.23;100.00
48041;BME280;33815;48.386;11.738;2022-09-16T03:20:21;95917.13;;;10.26;100.00
48041;BME280;33815;48.386;11.738;2022-09-16T03:23:26;95916.47;;;10.24;100.00
48041;BME280;33815;48.386;11.738;2022-09-16T03:31:18;95900.84;;;10.24;100.00
48041;BME280;33815;48.386;11.738;2022-09-16T03:34:05;95900.72;;;10.25;100.00
48041;BME280;33815;48.386;11.738;2022-09-16T03:36:38;95894.19;;;10.21;100.00
48041;BME280;33815;48.386;11.738;2022-09-16T03:39:05;95891.44;;;10.23;100.00
48041;BME280;33815;48.386;11.738;2022-09-16T03:41:31;95897.44;;;10.23;100.00
48041;BME280;33815;48.386;11.738;2022-09-16T03:43:58;95877.59;;;10.14;100.00
48041;BME280;33815;48.386;11.738;2022-09-16T03:46:25;95874.00;;;10.15;100.00
48041;BME280;33815;48.386;11.738;2022-09-16T03:48:56;95894.31;;;10.28;100.00
48041;BME280;33815;48.386;11.738;2022-09-16T03:51:22;95889.94;;;10.28;100.00
48041;BME280;33815;48.386;11.738;2022-09-16T03:53:48;95865.41;;;10.15;100.00
48041;BME280;33815;48.386;11.738;2022-09-16T03:56:13;95876.13;;;10.20;100.00
48041;BME280;33815;48.386;11.738;2022-09-16T03:58:39;95891.09;;;10.34;100.00
48041;BME280;33815;48.386;11.738;2022-09-16T04:01:04;95893.22;;;10.39;100.00
48041;BME280;33815;48.386;11.738;2022-09-16T04:03:29;95881.31;;;10.36;100.00
48041;BME280;33815;48.386;11.738;2022-09-16T04:05:56;95864.06;;;10.27;100.00
48041;BME280;33815;48.386;11.738;2022-09-16T04:08:22;95885.56;;;10.37;100.00
48041;BME280;33815;48.386;11.738;2022-09-16T04:10:59;95880.00;;;10.32;100.00
48041;BME280;33815;48.386;11.738;2022-09-16T04:13:25;95874.50;;;10.19;100.00
48041;BME280;33815;48.386;11.738;2022-09-16T04:15:53;95866.19;;;10.07;100.00
48041;BME280;33815;48.386;11.738;2022-09-16T04:18:18;95878.09;;;10.01;100.00
48041;BME280;33815;48.386;11.738;2022-09-16T04:20:43;95884.44;;;9.99;100.00
48041;BME280;33815;48.386;11.738;2022-09-16T04:23:09;95894.69;;;9.92;100.00
48041;BME280;33815;48.386;11.738;2022-09-16T04:25:34;95894.38;;;9.87;100.00
48041;BME280;33815;48.386;11.738;2022-09-16T04:28:00;95898.94;;;9.85;100.00
48041;BME280;33815;48.386;11.738;2022-09-16T04:30:26;95901.69;;;9.83;100.00
48041;BME280;33815;48.386;11.738;2022-09-16T04:32:55;95888.34;;;9.78;100.00
48041;BME280;33815;48.386;11.738;2022-09-16T04:35:21;95890.28;;;9.84;100.00
48041;BME280;33815;48.386;11.738;2022-09-16T04:37:46;95904.78;;;9.95;100.00
48041;BME280;33815;48.386;11.738;2022-09-16T04:40:11;95902.50;;;10.00;100.00
48041;BME280;33815;48.386;11.738;2022-09-16T04:42:37;95894.38;;;9.95;100.00
48041;BME280;33815;48.386;11.738;2022-09-16T04:45:03;95908.34;;;10.02;100.00
48041;BME280;33815;48.386;11.738;2022-09-16T04:47:29;95896.00;;;9.96;100.00
48041;BME280;33815;48.386;11.738;2022-09-16T04:49:54;95899.25;;;9.90;100.00
48041;BME280;33815;48.386;11.738;2022-09-16T04:52:19;95879.72;;;9.77;100.00
48041;BME280;33815;48.386;11.738;2022-09-16T04:54:45;95917.47;;;10.06;100.00
48041;BME280;33815;48.386;11.738;2022-09-16T04:57:10;95916.34;;;10.01;100.00
48041;BME280;33815;48.386;11.738;2022-09-16T04:59:35;95907.22;;;9.97;100.00
48041;BME280;33815;48.386;11.738;2022-09-16T05:02:00;95915.38;;;10.02;100.00
48041;BME280;33815;48.386;11.738;2022-09-16T05:04:26;95923.66;;;10.14;100.00
48041;BME280;33815;48.386;11.738;2022-09-16T05:06:51;95928.84;;;10.22;100.00
48041;BME280;33815;48.386;11.738;2022-09-16T05:09:17;95908.81;;;10.14;100.00
48041;BME280;33815;48.386;11.738;2022-09-16T05:11:42;95905.59;;;10.20;100.00
48041;BME280;33815;48.386;11.738;2022-09-16T05:14:12;95917.63;;;10.29;100.00
48041;BME280;33815;48.386;11.738;2022-09-16T05:16:38;95876.94;;;10.04;100.00
48041;BME280;33815;48.386;11.738;2022-09-16T05:19:03;95923.66;;;10.38;100.00
48041;BME280;33815;48.386;11.738;2022-09-16T05:21:30;95921.06;;;10.38;100.00
48041;BME280;33815;48.386;11.738;2022-09-16T05:23:59;95922.53;;;10.41;100.00
48041;BME280;33815;48.386;11.738;2022-09-16T05:26:26;95920.56;;;10.43;100.00
48041;BME280;33815;48.386;11.738;2022-09-16T05:28:53;95901.19;;;10.45;100.00
48041;BME280;33815;48.386;11.738;2022-09-16T05:31:22;95908.66;;;10.57;100.00
48041;BME280;33815;48.386;11.738;2022-09-16T05:34:20;95910.28;;;10.50;100.00
48041;BME280;33815;48.386;11.738;2022-09-16T05:36:46;95928.53;;;10.58;100.00
48041;BME280;33815;48.386;11.738;2022-09-16T05:39:14;95908.00;;;10.55;100.00
48041;BME280;33815;48.386;11.738;2022-09-16T05:41:42;95889.78;;;10.55;100.00
48041;BME280;33815;48.386;11.738;2022-09-16T05:44:08;95898.53;;;10.62;100.00
48041;BME280;33815;48.386;11.738;2022-09-16T05:46:34;95915.44;;;10.74;100.00
48041;BME280;33815;48.386;11.738;2022-09-16T05:48:59;95913.47;;;10.85;100.00
48041;BME280;33815;48.386;11.738;2022-09-16T05:51:25;95918.97;;;10.90;100.00
48041;BME280;33815;48.386;11.738;2022-09-16T05:53:51;95917.66;;;10.94;100.00
48041;BME280;33815;48.386;11.738;2022-09-16T05:56:22;95909.53;;;10.89;100.00
48041;BME280;33815;48.386;11.738;2022-09-16T05:58:51;95912.94;;;10.89;100.00
48041;BME280;33815;48.386;11.738;2022-09-16T06:01:22;95908.41;;;10.91;100.00
48041;BME280;33815;48.386;11.738;2022-09-16T06:03:49;95919.94;;;10.97;100.00
48041;BME280;33815;48.386;11.738;2022-09-16T06:08:44;95911.13;;;10.98;100.00
48041;BME280;33815;48.386;11.738;2022-09-16T06:11:10;95910.59;;;11.11;100.00
48041;BME280;33815;48.386;11.738;2022-09-16T06:13:38;95912.47;;;11.25;100.00
48041;BME280;33815;48.386;11.738;2022-09-16T06:16:05;95916.22;;;11.23;100.00
48041;BME280;33815;48.386;11.738;2022-09-16T06:18:31;95912.47;;;11.25;100.00
48041;BME280;33815;48.386;11.738;2022-09-16T06:20:57;95912.63;;;11.32;100.00
48041;BME280;33815;48.386;11.738;2022-09-16T06:23:23;95915.03;;;11.34;100.00
48041;BME280;33815;48.386;11.738;2022-09-16T06:25:58;95905.09;;;11.29;100.00
48041;BME280;33815;48.386;11.738;2022-09-16T06:28:24;95893.69;;;11.30;100.00
48041;BME280;33815;48.386;11.738;2022-09-16T06:31:03;95906.69;;;11.38;100.00
48041;BME280;33815;48.386;11.738;2022-09-16T06:33:29;95913.25;;;11.34;100.00
48041;BME280;33815;48.386;11.738;2022-09-16T06:35:54;95899.03;;;11.37;100.00
48041;BME280;33815;48.386;11.738;2022-09-16T06:38:21;95902.81;;;11.34;100.00
48041;BME280;33815;48.386;11.738;2022-09-16T06:40:47;95892.91;;;11.29;100.00
48041;BME280;33815;48.386;11.738;2022-09-16T06:43:13;95892.72;;;11.31;100.00
48041;BME280;33815;48.386;11.738;2022-09-16T06:45:38;95881.59;;;11.37;100.00
48041;BME280;33815;48.386;11.738;2022-09-16T06:48:04;95894.13;;;11.65;100.00
48041;BME280;33815;48.386;11.738;2022-09-16T06:50:29;95883.63;;;11.73;100.00
48041;BME280;33815;48.386;11.738;2022-09-16T06:52:54;95897.88;;;11.94;100.00
48041;BME280;33815;48.386;11.738;2022-09-16T06:55:20;95894.19;;;11.80;100.00
48041;BME280;33815;48.386;11.738;2022-09-16T06:57:45;95898.16;;;11.76;100.00
48041;BME280;33815;48.386;11.738;2022-09-16T07:00:10;95902.22;;;11.78;100.00
48041;BME280;33815;48.386;11.738;2022-09-16T07:02:37;95905.53;;;11.95;100.00
48041;BME280;33815;48.386;11.738;2022-09-16T07:05:02;95893.13;;;11.89;100.00
48041;BME280;33815;48.386;11.738;2022-09-16T07:07:30;95887.88;;;11.97;100.00
48041;BME280;33815;48.386;11.738;2022-09-16T07:09:56;95896.88;;;11.95;100.00
48041;BME280;33815;48.386;11.738;2022-09-16T07:12:22;95895.34;;;12.00;100.00
48041;BME280;33815;48.386;11.738;2022-09-16T07:14:47;95900.50;;;11.94;100.00
48041;BME280;33815;48.386;11.738;2022-09-16T07:17:12;95904.38;;;11.98;100.00
48041;BME280;33815;48.386;11.738;2022-09-16T07:19:37;95885.13;;;11.91;100.00
48041;BME280;33815;48.386;11.738;2022-09-16T07:22:03;95894.91;;;11.97;100.00
48041;BME280;33815;48.386;11.738;2022-09-16T07:24:28;95892.59;;;12.02;100.00
48041;BME280;33815;48.386;11.738;2022-09-16T07:26:53;95884.91;;;12.00;100.00
48041;BME280;33815;48.386;11.738;2022-09-16T07:29:18;95884.28;;;11.98;100.00
48041;BME280;33815;48.386;11.738;2022-09-16T07:31:45;95883.06;;;12.09;100.00
48041;BME280;33815;48.386;11.738;2022-09-16T07:34:11;95883.50;;;12.13;100.00
48041;BME280;33815;48.386;11.738;2022-09-16T07:36:41;95887.47;;;12.09;100.00
48041;BME280;33815;48.386;11.738;2022-09-16T07:39:07;95875.47;;;11.99;100.00
48041;BME280;33815;48.386;11.738;2022-09-16T07:41:38;95889.19;;;12.16;100.00
48041;BME280;33815;48.386;11.738;2022-09-16T07:44:05;95882.81;;;12.19;100.00
48041;BME280;33815;48.386;11.738;2022-09-16T07:46:33;95896.13;;;12.24;100.00
48041;BME280;33815;48.386;11.738;2022-09-16T07:49:00;95893.34;;;12.26;100.00
48041;BME280;33815;48.386;11.738;2022-09-16T07:51:26;95897.34;;;12.37;100.00
48041;BME280;33815;48.386;11.738;2022-09-16T07:54:03;95906.91;;;12.44;100.00
48041;BME280;33815;48.386;11.738;2022-09-16T07:56:31;95889.88;;;12.48;100.00
48041;BME280;33815;48.386;11.738;2022-09-16T07:58:58;95886.00;;;12.44;100.00
48041;BME280;33815;48.386;11.738;2022-09-16T08:01:24;95898.25;;;12.59;100.00
48041;BME280;33815;48.386;11.738;2022-09-16T08:03:49;95895.84;;;12.57;100.00
48041;BME280;33815;48.386;11.738;2022-09-16T08:06:18;95905.47;;;12.72;100.00
48041;BME280;33815;48.386;11.738;2022-09-16T08:08:44;95894.66;;;12.90;100.00
48041;BME280;33815;48.386;11.738;2022-09-16T08:11:10;95887.97;;;13.02;100.00
48041;BME280;33815;48.386;11.738;2022-09-16T08:13:37;95899.38;;;13.31;100.00
48041;BME280;33815;48.386;11.738;2022-09-16T08:16:09;95888.56;;;13.34;100.00
48041;BME280;33815;48.386;11.738;2022-09-16T08:18:35;95899.47;;;13.38;100.00
48041;BME280;33815;48.386;11.738;2022-09-16T08:21:08;95891.25;;;13.41;100.00
48041;BME280;33815;48.386;11.738;2022-09-16T08:23:38;95910.66;;;13.46;100.00
48041;BME280;33815;48.386;11.738;2022-09-16T08:26:04;95918.38;;;13.54;100.00
48041;BME280;33815;48.386;11.738;2022-09-16T08:28:31;95916.34;;;13.71;100.00
48041;BME280;33815;48.386;11.738;2022-09-16T08:31:00;95919.41;;;13.97;100.00
48041;BME280;33815;48.386;11.738;2022-09-16T08:33:26;95923.88;;;14.25;100.00
48041;BME280;33815;48.386;11.738;2022-09-16T08:36:02;95916.25;;;14.86;100.00
48041;BME280;33815;48.386;11.738;2022-09-16T08:38:30;95909.91;;;15.09;100.00
48041;BME280;33815;48.386;11.738;2022-09-16T08:41:00;95908.31;;;15.15;100.00
48041;BME280;33815;48.386;11.738;2022-09-16T08:43:36;95901.91;;;15.24;100.00
48041;BME280;33815;48.386;11.738;2022-09-16T08:46:11;95897.22;;;15.13;100.00
48041;BME280;33815;48.386;11.738;2022-09-16T08:49:10;95911.31;;;15.05;100.00
48041;BME280;33815;48.386;11.738;2022-09-16T08:51:39;95912.34;;;15.04;100.00
48041;BME280;33815;48.386;11.738;2022-09-16T08:54:21;95914.88;;;14.90;100.00
48041;BME280;33815;48.386;11.738;2022-09-16T08:56:49;95922.28;;;14.52;100.00
48041;BME280;33815;48.386;11.738;2022-09-16T08:59:21;95918.97;;;14.43;100.00
48041;BME280;33815;48.386;11.738;2022-09-16T09:01:51;95914.31;;;14.10;100.00
48041;BME280;33815;48.386;11.738;2022-09-16T09:04:20;95899.22;;;13.91;100.00
48041;BME280;33815;48.386;11.738;2022-09-16T09:09:35;95920.47;;;13.81;100.00
48041;BME280;33815;48.386;11.738;2022-09-16T09:12:09;95914.56;;;13.72;100.00
48041;BME280;33815;48.386;11.738;2022-09-16T09:14:58;95911.53;;;13.53;100.00
48041;BME280;33815;48.386;11.738;2022-09-16T09:26:14;95900.44;;;12.85;100.00
48041;BME280;33815;48.386;11.738;2022-09-16T09:28:55;95902.50;;;12.90;100.00
48041;BME280;33815;48.386;11.738;2022-09-16T09:34:21;95892.13;;;12.81;100.00
48041;BME280;33815;48.386;11.738;2022-09-16T09:39:45;95892.09;;;12.37;100.00
48041;BME280;33815;48.386;11.738;2022-09-16T09:42:23;95892.00;;;12.30;100.00
48041;BME280;33815;48.386;11.738;2022-09-16T09:44:55;95894.34;;;12.25;100.00
48041;BME280;33815;48.386;11.738;2022-09-16T09:47:25;95895.75;;;12.12;100.00
48041;BME280;33815;48.386;11.738;2022-09-16T09:49:57;95891.22;;;12.06;100.00
48041;BME280;33815;48.386;11.738;2022-09-16T09:54:52;95891.06;;;11.61;100.00
48041;BME280;33815;48.386;11.738;2022-09-16T09:57:24;95895.81;;;11.58;100.00
48041;BME280;33815;48.386;11.738;2022-09-16T10:00:01;95904.44;;;11.58;100.00
48041;BME280;33815;48.386;11.738;2022-09-16T10:02:33;95907.19;;;11.65;100.00
48041;BME280;33815;48.386;11.738;2022-09-16T10:05:00;95902.75;;;11.65;100.00
48041;BME280;33815;48.386;11.738;2022-09-16T10:07:26;95902.75;;;11.65;100.00
48041;BME280;33815;48.386;11.738;2022-09-16T10:09:58;95902.53;;;11.52;100.00
48041;BME280;33815;48.386;11.738;2022-09-16T10:12:26;95897.53;;;11.42;100.00
48041;BME280;33815;48.386;11.738;2022-09-16T10:14:52;95898.81;;;11.46;100.00
48041;BME280;33815;48.386;11.738;2022-09-16T10:17:18;95904.66;;;11.48;100.00
48041;BME280;33815;48.386;11.738;2022-09-16T10:19:54;95904.13;;;11.30;100.00
48041;BME280;33815;48.386;11.738;2022-09-16T10:22:26;95904.81;;;11.24;100.00
48041;BME280;33815;48.386;11.738;2022-09-16T10:25:04;95902.56;;;11.21;100.00
48041;BME280;33815;48.386;11.738;2022-09-16T10:27:36;95902.72;;;11.19;100.00
48041;BME280;33815;48.386;11.738;2022-09-16T10:30:16;95894.34;;;11.32;100.00
48041;BME280;33815;48.386;11.738;2022-09-16T10:33:01;95896.53;;;11.52;100.00
48041;BME280;33815;48.386;11.738;2022-09-16T10:35:32;95894.19;;;11.34;100.00
48041;BME280;33815;48.386;11.738;2022-09-16T10:38:01;95896.16;;;11.23;100.00
48041;BME280;33815;48.386;11.738;2022-09-16T10:40:28;95885.94;;;11.13;100.00
48041;BME280;33815;48.386;11.738;2022-09-16T10:43:01;95883.06;;;11.08;100.00
48041;BME280;33815;48.386;11.738;2022-09-16T10:45:33;95882.09;;;11.32;100.00
48041;BME280;33815;48.386;11.738;2022-09-16T10:48:04;95885.38;;;11.58;100.00
48041;BME280;33815;48.386;11.738;2022-09-16T10:50:30;95883.00;;;11.71;100.00
48041;BME280;33815;48.386;11.738;2022-09-16T10:52:56;95886.72;;;11.77;100.00
48041;BME280;33815;48.386;11.738;2022-09-16T10:55:24;95887.75;;;11.68;100.00
48041;BME280;33815;48.386;11.738;2022-09-16T10:57:50;95895.47;;;11.38;100.00
48041;BME280;33815;48.386;11.738;2022-09-16T11:00:17;95884.53;;;11.34;100.00
48041;BME280;33815;48.386;11.738;2022-09-16T11:03:16;95887.50;;;11.31;100.00
48041;BME280;33815;48.386;11.738;2022-09-16T11:14:26;95897.81;;;10.85;100.00
48041;BME280;33815;48.386;11.738;2022-09-16T11:30:51;95925.28;;;9.98;100.00
48041;BME280;33815;48.386;11.738;2022-09-16T11:33:27;95922.50;;;9.91;100.00
48041;BME280;33815;48.386;11.738;2022-09-16T11:41:50;95912.91;;;9.92;100.00
48041;BME280;33815;48.386;11.738;2022-09-16T11:57:51;95906.53;;;10.52;100.00
48041;BME280;33815;48.386;11.738;2022-09-16T12:00:19;95914.81;;;10.64;100.00
48041;BME280;33815;48.386;11.738;2022-09-16T12:03:29;95911.88;;;10.59;100.00
48041;BME280;33815;48.386;11.738;2022-09-16T12:06:04;95895.00;;;10.38;100.00
48041;BME280;33815;48.386;11.738;2022-09-16T12:08:52;95909.81;;;10.46;100.00
48041;BME280;33815;48.386;11.738;2022-09-16T12:11:37;95918.28;;;10.32;100.00
48041;BME280;33815;48.386;11.738;2022-09-16T12:14:15;95917.47;;;10.31;100.00
48041;BME280;33815;48.386;11.738;2022-09-16T12:16:46;95919.75;;;10.18;100.00
48041;BME280;33815;48.386;11.738;2022-09-16T12:19:22;95929.81;;;10.21;100.00
48041;BME280;33815;48.386;11.738;2022-09-16T12:22:00;95929.19;;;10.27;100.00
48041;BME280;33815;48.386;11.738;2022-09-16T12:27:25;95932.25;;;10.31;100.00
48041;BME280;33815;48.386;11.738;2022-09-16T12:29:59;95938.00;;;10.34;100.00
48041;BME280;33815;48.386;11.738;2022-09-16T12:32:37;95937.31;;;10.24;100.00
48041;BME280;33815;48.386;11.738;2022-09-16T12:35:20;95931.78;;;10.27;100.00
48041;BME280;33815;48.386;11.738;2022-09-16T12:37:48;95943.22;;;10.34;100.00
48041;BME280;33815;48.386;11.738;2022-09-16T12:40:26;95946.28;;;10.38;100.00
48041;BME280;33815;48.386;11.738;2022-09-16T12:50:26;95955.38;;;10.34;100.00
48041;BME280;33815;48.386;11.738;2022-09-16T13:01:35;95978.16;;;10.15;100.00
48041;BME280;33815;48.386;11.738;2022-09-16T13:04:25;95967.25;;;9.87;100.00
48041;BME280;33815;48.386;11.738;2022-09-16T13:06:54;95964.94;;;9.75;100.00
48041;BME280;33815;48.386;11.738;2022-09-16T13:11:54;95967.06;;;9.88;100.00
48041;BME280;33815;48.386;11.738;2022-09-16T13:14:23;95972.47;;;9.95;100.00
48041;BME280;33815;48.386;11.738;2022-09-16T13:16:54;95963.69;;;9.96;100.00
48041;BME280;33815;48.386;11.738;2022-09-16T13:21:46;95970.84;;;10.19;100.00
48041;BME280;33815;48.386;11.738;2022-09-16T13:24:26;95952.47;;;10.28;100.00
48041;BME280;33815;48.386;11.738;2022-09-16T13:26:53;95932.09;;;10.24;100.00
48041;BME280;33815;48.386;11.738;2022-09-16T13:29:41;95944.31;;;10.56;100.00
48041;BME280;33815;48.386;11.738;2022-09-16T13:35:05;95928.63;;;10.73;100.00
48041;BME280;33815;48.386;11.738;2022-09-16T13:37:49;95924.69;;;10.85;100.00
48041;BME280;33815;48.386;11.738;2022-09-16T13:40:35;95928.31;;;10.76;100.00
48041;BME280;33815;48.386;11.738;2022-09-16T13:45:38;95925.72;;;10.68;100.00
48041;BME280;33815;48.386;11.738;2022-09-16T13:48:17;95922.75;;;10.87;100.00
48041;BME280;33815;48.386;11.738;2022-09-16T13:50:49;95920.63;;;10.83;100.00
48041;BME280;33815;48.386;11.738;2022-09-16T13:53:31;95915.72;;;10.88;100.00
48041;BME280;33815;48.386;11.738;2022-09-16T13:56:06;95927.28;;;10.93;100.00
48041;BME280;33815;48.386;11.738;2022-09-16T13:58:37;95930.47;;;11.04;100.00
48041;BME280;33815;48.386;11.738;2022-09-16T14:01:10;95926.88;;;11.13;100.00
48041;BME280;33815;48.386;11.738;2022-09-16T14:06:43;95936.03;;;11.40;100.00
48041;BME280;33815;48.386;11.738;2022-09-16T14:09:34;95940.22;;;11.49;100.00
48041;BME280;33815;48.386;11.738;2022-09-16T14:14:45;95911.09;;;11.06;100.00
48041;BME280;33815;48.386;11.738;2022-09-16T14:17:21;95934.22;;;11.09;100.00
48041;BME280;33815;48.386;11.738;2022-09-16T14:19:49;95949.53;;;11.12;100.00
48041;BME280;33815;48.386;11.738;2022-09-16T14:22:18;95951.22;;;10.97;100.00
48041;BME280;33815;48.386;11.738;2022-09-16T14:24:47;95946.13;;;11.04;100.00
48041;BME280;33815;48.386;11.738;2022-09-16T14:30:00;95932.28;;;11.03;100.00
48041;BME280;33815;48.386;11.738;2022-09-16T14:32:31;95950.06;;;11.00;100.00
48041;BME280;33815;48.386;11.738;2022-09-16T14:35:02;95934.09;;;11.03;100.00
48041;BME280;33815;48.386;11.738;2022-09-16T14:37:29;95941.97;;;10.86;100.00
48041;BME280;33815;48.386;11.738;2022-09-16T14:40:03;95946.31;;;10.94;100.00
48041;BME280;33815;48.386;11.738;2022-09-16T14:42:29;95950.72;;;11.02;100.00
48041;BME280;33815;48.386;11.738;2022-09-16T14:44:56;95957.53;;;11.11;100.00
48041;BME280;33815;48.386;11.738;2022-09-16T14:47:56;95956.38;;;11.13;100.00
48041;BME280;33815;48.386;11.738;2022-09-16T14:50:19;95938.47;;;11.02;100.00
48041;BME280;33815;48.386;11.738;2022-09-16T14:53:24;95967.47;;;11.07;100.00
48041;BME280;33815;48.386;11.738;2022-09-16T14:55:50;95962.59;;;11.04;100.00
48041;BME280;33815;48.386;11.738;2022-09-16T14:58:15;95956.06;;;11.08;100.00
48041;BME280;33815;48.386;11.738;2022-09-16T15:00:50;95940.66;;;10.90;100.00
48041;BME280;33815;48.386;11.738;2022-09-16T15:03:22;95957.78;;;10.85;100.00
48041;BME280;33815;48.386;11.738;2022-09-16T15:05:49;95951.72;;;10.84;100.00
48041;BME280;33815;48.386;11.738;2022-09-16T15:08:22;95961.00;;;10.87;100.00
48041;BME280;33815;48.386;11.738;2022-09-16T15:10:53;95958.13;;;10.82;100.00
48041;BME280;33815;48.386;11.738;2022-09-16T15:13:37;95951.59;;;10.77;100.00
48041;BME280;33815;48.386;11.738;2022-09-16T15:16:17;95968.53;;;10.82;100.00